createdAt,value
2018-07-20T00:03:24.505Z,15.80
2018-07-20T00:13:25.764Z,15.70
2018-07-20T00:23:27.010Z,15.70
2018-07-20T00:33:28.246Z,15.50
2018-07-20T00:43:29.479Z,15.60
2018-07-20T00:53:30.726Z,15.40
2018-07-20T01:33:58.862Z,14.80
2018-07-20T01:44:00.170Z,14.70
2018-07-20T01:54:01.491Z,14.70
2018-07-20T02:04:02.770Z,14.40
2018-07-20T02:14:04.018Z,14.50
2018-07-20T02:24:06.069Z,14.50
2018-07-20T02:34:07.356Z,14.40
2018-07-20T02:44:08.632Z,14.40
2018-07-20T02:54:10.692Z,14.20
2018-07-20T03:04:11.936Z,14.10
2018-07-20T03:14:14.015Z,14.00
2018-07-20T03:24:15.276Z,14.00
2018-07-20T03:34:16.564Z,14.00
2018-07-20T03:44:17.915Z,14.00
2018-07-20T03:54:19.163Z,14.00
2018-07-20T04:04:20.428Z,14.10
2018-07-20T04:14:22.507Z,14.50
2018-07-20T04:24:23.767Z,14.50
2018-07-20T04:34:25.034Z,14.80
2018-07-20T04:44:27.050Z,15.50
2018-07-20T04:54:29.081Z,16.10
2018-07-20T05:04:30.370Z,16.10
2018-07-20T05:14:31.654Z,16.50
2018-07-20T05:24:33.666Z,17.20
2018-07-20T05:34:35.716Z,17.60
2018-07-20T05:44:37.002Z,17.70
2018-07-20T05:54:38.244Z,18.60
2018-07-20T06:04:39.529Z,19.00
2018-07-20T06:14:40.797Z,19.50
2018-07-20T06:24:42.040Z,19.90
2018-07-20T06:34:43.313Z,20.30
2018-07-20T06:44:44.598Z,21.10
2018-07-20T06:54:45.901Z,22.90
2018-07-20T07:04:47.186Z,23.00
2018-07-20T07:14:48.510Z,23.90
2018-07-20T07:24:49.754Z,24.20
2018-07-20T07:34:51.805Z,27.30
2018-07-20T07:44:53.090Z,27.20
2018-07-20T07:54:54.409Z,32.80
2018-07-20T08:04:55.663Z,31.70
2018-07-20T08:14:56.958Z,36.10
2018-07-20T08:24:58.230Z,39.70
2018-07-20T08:35:00.255Z,40.00
2018-07-20T08:45:01.524Z,39.90
2018-07-20T08:55:03.569Z,40.00
2018-07-20T09:05:04.848Z,39.90
2018-07-20T09:15:06.868Z,39.20
2018-07-20T09:25:08.154Z,39.20
2018-07-20T09:35:10.193Z,40.20
2018-07-20T09:45:11.463Z,40.10
2018-07-20T09:55:13.502Z,41.30
2018-07-20T10:05:14.768Z,41.30
2018-07-20T10:15:16.813Z,40.90
2018-07-20T10:25:18.119Z,40.90
2018-07-20T10:35:19.374Z,39.50
2018-07-20T10:45:21.513Z,34.20
2018-07-20T10:55:22.810Z,34.10
2018-07-20T11:05:24.094Z,32.40
2018-07-20T11:15:29.159Z,31.40
2018-07-20T11:25:31.181Z,31.30
2018-07-20T11:35:32.458Z,31.30
2018-07-20T11:45:33.732Z,31.10
2018-07-20T11:55:34.998Z,31.20
2018-07-20T12:05:36.253Z,31.10
2018-07-20T12:15:38.266Z,30.60
2018-07-20T12:25:40.278Z,30.80
2018-07-20T12:35:42.290Z,30.60
2018-07-20T12:45:43.576Z,30.60
2018-07-20T12:55:45.073Z,29.90
2018-07-20T13:05:47.123Z,29.30
2018-07-20T13:15:48.401Z,29.20
2018-07-20T13:25:50.430Z,29.70
2018-07-20T13:35:51.696Z,29.60
2018-07-20T13:45:52.976Z,29.60
2018-07-20T13:55:54.304Z,29.20
2018-07-20T14:05:55.678Z,29.50
2018-07-20T14:15:58.131Z,29.30
2018-07-20T14:25:59.412Z,29.20
2018-07-20T14:36:01.547Z,28.90
2018-07-20T14:46:03.932Z,28.80
2018-07-20T14:56:05.213Z,28.60
2018-07-20T15:06:06.513Z,28.30
2018-07-20T15:16:07.794Z,28.20
2018-07-20T15:26:09.053Z,28.10
2018-07-20T15:36:10.320Z,28.00
2018-07-20T15:46:12.433Z,27.90
2018-07-20T16:06:20.471Z,27.70
2018-07-20T16:16:22.491Z,27.70
2018-07-20T16:26:23.755Z,27.70
2018-07-20T16:36:25.017Z,27.50
2018-07-20T16:46:26.282Z,27.10
2018-07-20T16:56:27.550Z,27.40
2018-07-20T17:06:29.594Z,26.30
2018-07-20T17:16:30.888Z,26.20
2018-07-20T17:26:32.172Z,26.00
2018-07-20T17:36:34.202Z,25.50
2018-07-20T17:46:36.227Z,25.10
2018-07-20T17:56:37.500Z,25.10
2018-07-20T18:06:38.770Z,24.60
2018-07-20T18:16:40.100Z,24.00
2018-07-20T18:26:42.111Z,23.10
2018-07-20T18:36:43.433Z,23.00
2018-07-20T18:46:44.713Z,22.80
2018-07-20T18:56:45.978Z,22.60
2018-07-20T19:06:48.005Z,22.00
2018-07-20T19:16:49.290Z,21.90
2018-07-20T19:26:50.656Z,21.40
2018-07-20T19:36:51.935Z,21.30
2018-07-20T19:46:53.237Z,20.90
2018-07-20T19:56:54.502Z,20.60
2018-07-20T20:07:02.033Z,20.50
2018-07-20T20:17:03.282Z,20.30
2018-07-20T20:27:04.545Z,20.00
2018-07-20T20:37:06.561Z,19.70
2018-07-20T20:47:07.815Z,19.60
2018-07-20T20:57:09.850Z,19.20
2018-07-20T21:07:11.870Z,19.10
2018-07-20T21:17:13.140Z,19.00
2018-07-20T21:27:15.173Z,18.80
2018-07-20T21:37:20.231Z,18.80
2018-07-20T21:47:22.237Z,18.60
2018-07-20T21:57:24.254Z,18.40
2018-07-20T22:07:26.329Z,18.30
2018-07-20T22:17:27.594Z,18.30
2018-07-20T22:27:29.629Z,18.10
2018-07-20T22:37:30.887Z,18.00
2018-07-20T22:47:32.165Z,18.00
2018-07-20T22:57:34.255Z,17.90
2018-07-20T23:07:35.496Z,17.80
2018-07-20T23:17:36.769Z,17.80
2018-07-20T23:27:38.775Z,17.70
2018-07-20T23:37:40.080Z,17.70
2018-07-20T23:47:41.327Z,17.60
2018-07-20T23:57:42.622Z,17.60
